Time;durP1;ratioP1;P1;durP2;ratioP2;P2;SDS_P1;SDS_P2;PMS_P1;PMS_P2;Temp;Humidity;BMP_temperature;BMP_pressure;BME280_temperature;BME280_humidity;BME280_pressure;Samples;Min_cycle;Max_cycle;Signal;HPM_P1;HPM_P2
2021/09/18 00:01:18;;;;;;;44.53;16.57;;;;;;;10.87;100.00;100700.23;1832659;78;20940;-84
2021/09/18 00:03:44;;;;;;;50.55;17.25;;;;;;;10.90;100.00;100702.41;1832625;77;20840;-84
2021/09/18 00:06:11;;;;;;;49.98;16.07;;;;;;;10.93;100.00;100701.63;1832640;77;20879;-84
2021/09/18 00:08:37;;;;;;;42.58;15.48;;;;;;;10.97;100.00;100705.41;1830748;78;20980;-83
2021/09/18 00:11:03;;;;;;;46.80;15.08;;;;;;;10.99;100.00;100705.44;1832681;77;20951;-84
2021/09/18 00:13:31;;;;;;;46.13;14.80;;;;;;;11.05;100.00;100699.54;1832663;78;21043;-84
2021/09/18 00:15:58;;;;;;;41.55;13.43;;;;;;;11.09;100.00;100703.36;1832336;78;21336;-84
2021/09/18 00:18:24;;;;;;;41.02;13.22;;;;;;;11.14;100.00;100704.72;1832258;77;20980;-84
2021/09/18 00:20:50;;;;;;;36.80;13.40;;;;;;;11.23;100.00;100699.10;1832709;77;20856;-83
2021/09/18 00:23:16;;;;;;;38.95;14.33;;;;;;;11.30;100.00;100704.29;1832207;78;20935;-84
2021/09/18 00:25:42;;;;;;;40.80;14.23;;;;;;;11.33;100.00;100704.56;1832682;78;20978;-84
2021/09/18 00:28:08;;;;;;;37.20;14.13;;;;;;;11.41;100.00;100707.83;1832550;77;20939;-84
2021/09/18 00:30:34;;;;;;;39.92;15.25;;;;;;;11.44;100.00;100700.55;1832713;78;20942;-84
2021/09/18 00:33:02;;;;;;;40.50;14.25;;;;;;;11.48;100.00;100705.18;1832656;77;20919;-83
2021/09/18 00:35:28;;;;;;;41.73;13.65;;;;;;;11.51;100.00;100700.61;1832651;77;21014;-84
2021/09/18 00:37:54;;;;;;;37.80;13.78;;;;;;;11.57;100.00;100694.15;1832424;77;21103;-84
2021/09/18 00:40:21;;;;;;;39.63;13.78;;;;;;;11.58;100.00;100692.26;1821029;77;20871;-83
2021/09/18 00:42:47;;;;;;;40.98;14.25;;;;;;;11.63;100.00;100694.98;1796398;79;20931;-84
2021/09/18 00:45:13;;;;;;;45.83;15.25;;;;;;;11.66;100.00;100686.91;1796683;79;21037;-83
2021/09/18 00:47:39;;;;;;;39.30;14.45;;;;;;;11.69;100.00;100691.77;1796329;79;20997;-84
2021/09/18 00:50:06;;;;;;;37.45;13.45;;;;;;;11.75;100.00;100684.77;1796292;79;21086;-84
2021/09/18 00:52:32;;;;;;;38.35;13.98;;;;;;;11.77;100.00;100689.91;1796043;79;21033;-84
2021/09/18 00:54:58;;;;;;;45.20;16.93;;;;;;;11.81;100.00;100694.50;1796370;79;20864;-84
2021/09/18 00:57:24;;;;;;;38.33;12.90;;;;;;;11.87;100.00;100693.20;1796077;79;21533;-84
2021/09/18 00:59:50;;;;;;;37.30;12.73;;;;;;;11.89;100.00;100689.71;1796182;79;20887;-84
2021/09/18 01:02:16;;;;;;;44.18;13.18;;;;;;;11.93;100.00;100685.39;1796292;79;21073;-84
2021/09/18 01:04:42;;;;;;;40.90;13.50;;;;;;;11.91;100.00;100674.87;1796165;78;21627;-84
2021/09/18 01:07:08;;;;;;;41.00;13.48;;;;;;;11.95;100.00;100676.48;1795988;79;21645;-84
2021/09/18 01:09:35;;;;;;;38.70;12.95;;;;;;;11.97;100.00;100672.96;1796401;79;21016;-85
2021/09/18 01:12:05;;;;;;;43.68;14.50;;;;;;;11.99;100.00;100672.97;1796328;79;21058;-84
2021/09/18 01:14:31;;;;;;;39.08;14.25;;;;;;;12.02;100.00;100664.88;1795914;79;21120;-84
2021/09/18 01:16:58;;;;;;;33.73;13.00;;;;;;;12.05;100.00;100667.05;1795328;79;20923;-85
2021/09/18 01:19:23;;;;;;;52.03;13.58;;;;;;;11.96;100.00;100664.05;1790911;80;21525;-85
2021/09/18 01:21:50;;;;;;;45.92;14.73;;;;;;;11.88;100.00;100659.17;1790990;80;20926;-84
2021/09/18 01:24:17;;;;;;;41.08;14.05;;;;;;;11.88;100.00;100652.96;1790800;80;21058;-84
2021/09/18 01:26:45;;;;;;;40.95;13.90;;;;;;;11.87;100.00;100661.61;1790816;80;21026;-85
2021/09/18 01:29:11;;;;;;;45.38;14.25;;;;;;;11.83;100.00;100659.95;1790930;80;21025;-86
2021/09/18 01:31:43;;;;;;;37.85;13.40;;;;;;;11.75;100.00;100666.41;1791266;80;20934;-86
2021/09/18 01:34:09;;;;;;;44.08;14.30;;;;;;;11.72;100.00;100662.89;1790800;80;21060;-84
2021/09/18 01:36:37;;;;;;;46.65;14.70;;;;;;;11.67;100.00;100661.52;1790867;80;21017;-84
2021/09/18 01:39:07;;;;;;;48.20;15.18;;;;;;;11.65;100.00;100658.27;1791285;80;21685;-84
2021/09/18 01:41:33;;;;;;;47.60;15.10;;;;;;;11.64;100.00;100652.60;1787148;80;20966;-84
2021/09/18 01:44:00;;;;;;;43.33;14.55;;;;;;;11.59;100.00;100656.11;1790962;80;21600;-85
2021/09/18 01:46:26;;;;;;;46.23;14.83;;;;;;;11.58;100.00;100657.17;1763894;80;21490;-83
2021/09/18 01:48:53;;;;;;;35.05;13.80;;;;;;;11.54;100.00;100655.55;1790877;80;20903;-84
2021/09/18 01:51:19;;;;;;;38.45;14.45;;;;;;;11.52;100.00;100659.58;1790902;80;21081;-84
2021/09/18 01:53:46;;;;;;;37.15;14.80;;;;;;;11.49;100.00;100656.06;1790896;80;20844;-84
2021/09/18 01:56:12;;;;;;;39.75;14.50;;;;;;;11.49;100.00;100661.45;1790932;80;21155;-85
2021/09/18 01:58:38;;;;;;;42.15;14.25;;;;;;;11.48;100.00;100661.20;1790968;80;20934;-85
2021/09/18 02:01:04;;;;;;;44.90;15.35;;;;;;;11.46;100.00;100669.55;1790841;80;20938;-84
2021/09/18 02:03:32;;;;;;;41.05;15.13;;;;;;;11.42;100.00;100668.45;1790984;80;21034;-85
2021/09/18 02:05:58;;;;;;;45.05;13.88;;;;;;;11.42;100.00;100670.34;1791040;80;20908;-86
2021/09/18 02:08:24;;;;;;;40.92;14.58;;;;;;;11.37;100.00;100662.48;1791020;80;20967;-88
2021/09/18 02:10:53;;;;;;;39.53;14.07;;;;;;;11.34;100.00;100663.02;1790955;80;20979;-85
2021/09/18 02:13:20;;;;;;;38.50;12.82;;;;;;;11.32;100.00;100662.48;1791178;80;20979;-85
2021/09/18 02:15:47;;;;;;;41.58;14.63;;;;;;;11.33;100.00;100666.80;1790896;80;20972;-84
2021/09/18 02:18:14;;;;;;;38.35;13.10;;;;;;;11.29;100.00;100656.23;1790142;79;20968;-84
2021/09/18 02:20:42;;;;;;;32.88;12.23;;;;;;;11.23;100.00;100655.94;1790119;80;21038;-85
2021/09/18 02:23:10;;;;;;;50.17;12.68;;;;;;;11.24;100.00;100656.23;1790114;80;21112;-84
2021/09/18 02:25:36;;;;;;;36.05;12.90;;;;;;;11.14;100.00;100657.52;1790233;80;21558;-84
2021/09/18 02:28:04;;;;;;;34.65;12.50;;;;;;;11.12;100.00;100654.29;1790235;80;21077;-83
2021/09/18 02:30:34;;;;;;;32.35;12.98;;;;;;;11.09;100.00;100649.42;1790224;80;21002;-84
2021/09/18 02:33:01;;;;;;;40.10;13.30;;;;;;;11.06;100.00;100647.22;1790067;80;21085;-84
2021/09/18 02:35:29;;;;;;;36.90;13.43;;;;;;;11.05;100.00;100647.76;1790236;80;20963;-84
2021/09/18 02:37:57;;;;;;;34.27;13.20;;;;;;;11.05;100.00;100645.61;1790215;80;20920;-84
2021/09/18 02:40:25;;;;;;;36.77;12.82;;;;;;;11.01;100.00;100645.33;1790249;80;21052;-84
2021/09/18 02:42:57;;;;;;;46.08;13.95;;;;;;;11.01;100.00;100648.02;1790078;80;21454;-85
2021/09/18 02:45:23;;;;;;;38.95;13.05;;;;;;;11.01;100.00;100658.00;1790497;80;21486;-84
2021/09/18 02:47:50;;;;;;;33.65;13.30;;;;;;;10.97;100.00;100650.14;1790429;80;20998;-84
2021/09/18 02:50:19;;;;;;;36.20;13.72;;;;;;;10.93;100.00;100645.00;1790233;80;20986;-84
2021/09/18 02:52:45;;;;;;;43.98;13.35;;;;;;;10.86;100.00;100645.23;1790029;80;21801;-83
2021/09/18 02:55:12;;;;;;;34.83;13.35;;;;;;;10.84;100.00;100646.03;1789976;80;21432;-84
2021/09/18 02:57:39;;;;;;;45.95;15.23;;;;;;;10.81;100.00;100647.89;1790171;80;21495;-84
2021/09/18 03:00:08;;;;;;;45.23;13.93;;;;;;;10.79;100.00;100648.14;1790145;80;20987;-84
2021/09/18 03:02:34;;;;;;;41.90;15.75;;;;;;;10.77;100.00;100650.84;1790204;80;21046;-84
2021/09/18 03:05:00;;;;;;;48.92;15.93;;;;;;;10.76;100.00;100658.09;1790133;80;21934;-85
2021/09/18 03:07:26;;;;;;;49.27;15.93;;;;;;;10.74;100.00;100662.15;1790052;80;20871;-85
2021/09/18 03:09:52;;;;;;;54.33;17.10;;;;;;;10.69;100.00;100661.02;1789960;80;20883;-83
2021/09/18 03:12:17;;;;;;;46.00;15.90;;;;;;;10.68;100.00;100663.45;1790119;80;20930;-85
2021/09/18 03:14:43;;;;;;;54.23;16.25;;;;;;;10.65;100.00;100661.81;1790241;80;20859;-84
2021/09/18 03:17:09;;;;;;;53.05;17.12;;;;;;;10.62;100.00;100659.64;1790222;80;21062;-84
2021/09/18 03:19:35;;;;;;;41.05;16.35;;;;;;;10.57;100.00;100655.55;1792613;79;20962;-83
2021/09/18 03:22:01;;;;;;;47.58;17.48;;;;;;;10.53;100.00;100658.47;1793250;80;20954;-84
2021/09/18 03:24:27;;;;;;;47.45;16.52;;;;;;;10.52;100.00;100655.50;1793206;80;20971;-84
2021/09/18 03:26:53;;;;;;;51.45;18.73;;;;;;;10.51;100.00;100651.20;1764321;80;20946;-84
2021/09/18 03:29:19;;;;;;;49.42;16.48;;;;;;;10.51;100.00;100656.05;1793388;80;21144;-85
2021/09/18 03:31:44;;;;;;;46.48;17.98;;;;;;;10.51;100.00;100652.00;1792801;78;20899;-84
2021/09/18 03:34:11;;;;;;;49.23;17.62;;;;;;;10.55;100.00;100652.29;1747554;80;20978;-84
2021/09/18 03:36:37;;;;;;;54.80;17.60;;;;;;;10.59;100.00;100654.23;1748128;82;21052;-85
2021/09/18 03:39:04;;;;;;;52.85;17.85;;;;;;;10.63;100.00;100647.78;1747991;82;20925;-84
2021/09/18 03:41:30;;;;;;;49.15;17.48;;;;;;;10.71;100.00;100653.20;1748534;82;21080;-84
2021/09/18 03:43:56;;;;;;;46.68;16.80;;;;;;;10.78;100.00;100653.27;1748127;82;20987;-83
2021/09/18 03:46:22;;;;;;;57.55;18.02;;;;;;;10.83;100.00;100652.50;1748227;82;21140;-84
2021/09/18 03:48:48;;;;;;;50.85;18.12;;;;;;;10.90;100.00;100649.84;1748214;82;21024;-83
2021/09/18 03:51:14;;;;;;;54.98;17.32;;;;;;;11.00;100.00;100652.31;1748211;82;21016;-84
2021/09/18 03:53:40;;;;;;;46.80;18.17;;;;;;;11.10;100.00;100651.03;1747894;82;21951;-84
2021/09/18 03:56:06;;;;;;;45.28;16.90;;;;;;;11.20;100.00;100647.03;1748046;82;20878;-84
2021/09/18 03:58:32;;;;;;;50.73;18.45;;;;;;;11.35;100.00;100653.03;1766967;79;20995;-84
2021/09/18 04:00:58;;;;;;;59.00;17.98;;;;;;;11.48;100.00;100655.25;1796989;79;20992;-84
2021/09/18 04:03:24;;;;;;;50.38;17.57;;;;;;;11.63;100.00;100655.84;1779277;79;20971;-84
2021/09/18 04:05:50;;;;;;;43.33;17.00;;;;;;;11.77;100.00;100658.32;1796761;79;20982;-84
2021/09/18 04:08:16;;;;;;;52.85;16.35;;;;;;;11.91;100.00;100655.13;1822499;77;20931;-84
2021/09/18 04:10:42;;;;;;;42.38;15.88;;;;;;;12.00;100.00;100661.63;1829854;78;20938;-84
2021/09/18 04:13:08;;;;;;;47.17;15.50;;;;;;;12.12;100.00;100660.02;1829454;78;20990;-84
2021/09/18 04:15:34;;;;;;;50.58;17.17;;;;;;;12.21;100.00;100657.09;1829759;77;20971;-84
2021/09/18 04:18:00;;;;;;;46.35;16.62;;;;;;;12.36;100.00;100652.23;1830044;77;21115;-83
2021/09/18 04:20:26;;;;;;;50.70;17.50;;;;;;;12.55;100.00;100656.53;1832436;77;20940;-84
2021/09/18 04:22:53;;;;;;;48.33;16.37;;;;;;;12.73;100.00;100652.75;1832028;77;21526;-84
2021/09/18 04:25:19;;;;;;;50.30;17.62;;;;;;;12.93;100.00;100655.94;1832763;77;20939;-84
2021/09/18 04:27:45;;;;;;;49.60;16.82;;;;;;;13.14;100.00;100657.24;1832819;77;21023;-80
2021/09/18 04:30:11;;;;;;;49.50;17.07;;;;;;;13.39;100.00;100649.07;1832691;77;21108;-84
2021/09/18 04:32:37;;;;;;;51.80;18.15;;;;;;;13.95;100.00;100647.97;1832611;77;21499;-84
2021/09/18 04:35:04;;;;;;;53.45;17.87;;;;;;;14.87;100.00;100645.87;1832768;77;20848;-85
2021/09/18 04:37:30;;;;;;;47.95;16.75;;;;;;;15.90;100.00;100638.66;1832166;77;21022;-85
2021/09/18 04:39:56;;;;;;;51.53;17.07;;;;;;;16.56;100.00;100643.05;1832355;77;20888;-84
2021/09/18 04:42:22;;;;;;;47.20;14.50;;;;;;;17.24;100.00;100640.17;1828895;78;21842;-84
2021/09/18 04:44:48;;;;;;;49.70;15.45;;;;;;;17.81;100.00;100640.37;1832780;78;20923;-85
2021/09/18 04:47:14;;;;;;;56.68;17.80;;;;;;;18.06;100.00;100637.59;1832664;78;20888;-85
2021/09/18 04:49:40;;;;;;;53.68;18.42;;;;;;;18.32;100.00;100637.78;1832750;77;21485;-85
2021/09/18 04:52:06;;;;;;;54.65;18.05;;;;;;;18.69;100.00;100639.88;1832560;77;21518;-84
2021/09/18 04:54:32;;;;;;;46.58;15.88;;;;;;;19.10;100.00;100640.17;1832698;78;21122;-86
2021/09/18 04:56:58;;;;;;;46.05;14.33;;;;;;;19.62;100.00;100638.38;1832591;77;20836;-85
2021/09/18 04:59:24;;;;;;;42.58;13.60;;;;;;;20.08;100.00;100645.17;1832575;77;21545;-84
2021/09/18 05:01:50;;;;;;;44.18;12.30;;;;;;;20.64;100.00;100643.91;1832653;77;20880;-85
2021/09/18 05:04:15;;;;;;;47.83;13.65;;;;;;;20.72;100.00;100643.66;1832539;78;20829;-86
2021/09/18 05:06:41;;;;;;;53.45;19.32;;;;;;;20.95;100.00;100648.34;1832507;77;22333;-84
2021/09/18 05:09:07;;;;;;;54.27;22.75;;;;;;;21.60;100.00;100655.28;1832611;77;20903;-85
2021/09/18 05:11:33;;;;;;;59.00;23.57;;;;;;;22.39;100.00;100652.73;1832690;77;21004;-85
2021/09/18 05:13:59;;;;;;;52.93;20.02;;;;;;;23.52;100.00;100654.13;1832543;78;21594;-85
2021/09/18 05:16:25;;;;;;;51.88;18.82;;;;;;;24.39;89.83;100648.62;1829901;78;20888;-85
2021/09/18 05:18:51;;;;;;;47.58;17.95;;;;;;;25.00;81.62;100645.52;1831121;77;21068;-85
2021/09/18 05:21:17;;;;;;;44.93;16.05;;;;;;;25.70;71.52;100648.91;1829695;77;20920;-85
2021/09/18 05:23:43;;;;;;;55.83;16.80;;;;;;;26.07;63.10;100641.64;1829680;78;21485;-85
2021/09/18 05:26:11;;;;;;;44.05;16.30;;;;;;;25.93;58.03;100636.62;1829553;78;20821;-85
2021/09/18 05:28:37;;;;;;;54.30;16.05;;;;;;;25.42;56.88;100640.02;1829296;78;21199;-86
2021/09/18 05:31:03;;;;;;;56.18;15.60;;;;;;;25.18;58.22;100643.22;1829532;77;21130;-85
2021/09/18 05:33:29;;;;;;;44.33;14.65;;;;;;;25.19;60.58;100635.74;1829419;78;21006;-88
2021/09/18 05:35:55;;;;;;;38.55;14.68;;;;;;;25.33;57.09;100636.08;1829545;78;20987;-88
2021/09/18 05:38:22;;;;;;;40.73;12.98;;;;;;;25.73;59.67;100634.97;1829780;78;20920;-87
2021/09/18 05:40:48;;;;;;;46.30;13.58;;;;;;;26.03;55.67;100635.23;1829986;78;20963;-87
2021/09/18 05:43:13;;;;;;;33.58;12.40;;;;;;;26.42;55.59;100636.59;1829797;78;21167;-88
2021/09/18 05:45:39;;;;;;;38.55;11.70;;;;;;;26.96;58.65;100635.58;1829736;77;21552;-88
2021/09/18 05:48:06;;;;;;;29.23;11.18;;;;;;;27.82;52.76;100626.59;1829700;78;20915;-87
2021/09/18 05:50:34;;;;;;;41.05;11.45;;;;;;;28.15;50.94;100618.09;1829754;78;21023;-88
2021/09/18 05:53:00;;;;;;;33.90;11.80;;;;;;;27.89;49.05;100623.13;1829979;78;21448;-88
2021/09/18 05:55:26;;;;;;;30.75;10.70;;;;;;;27.37;49.91;100622.80;1784813;78;20980;-87
2021/09/18 05:57:52;;;;;;;34.95;11.12;;;;;;;26.96;50.97;100615.63;1829853;78;20919;-87
2021/09/18 06:00:19;;;;;;;25.70;9.85;;;;;;;26.77;52.22;100620.42;1829869;77;20947;-87
2021/09/18 06:02:45;;;;;;;32.42;9.70;;;;;;;26.58;53.08;100613.01;1829892;78;20999;-87
2021/09/18 06:05:12;;;;;;;24.80;9.98;;;;;;;26.45;53.60;100615.12;1829900;78;21539;-86
2021/09/18 06:07:38;;;;;;;25.40;9.45;;;;;;;26.23;56.25;100609.19;1829886;78;20988;-87
2021/09/18 06:10:05;;;;;;;22.07;8.60;;;;;;;26.27;57.62;100611.45;1829683;78;20959;-87
2021/09/18 06:12:32;;;;;;;21.55;7.78;;;;;;;26.20;59.20;100614.65;1829856;78;21495;-87
2021/09/18 06:14:59;;;;;;;25.88;8.18;;;;;;;26.31;59.92;100611.52;1829678;78;21011;-88
2021/09/18 06:17:24;;;;;;;21.68;5.10;;;;;;;26.44;61.25;100606.05;1829750;78;22850;-87
2021/09/18 06:19:50;;;;;;;17.02;5.75;;;;;;;26.65;59.15;100608.41;1827385;76;21600;-88
2021/09/18 06:22:16;;;;;;;20.27;4.58;;;;;;;26.93;59.22;100601.74;1823205;78;21022;-87
2021/09/18 06:24:44;;;;;;;9.13;4.30;;;;;;;27.20;53.97;100605.34;1826719;78;20880;-87
2021/09/18 06:27:11;;;;;;;13.25;3.52;;;;;;;27.49;52.07;100601.61;1826437;78;21019;-88
2021/09/18 06:29:37;;;;;;;12.23;3.95;;;;;;;27.73;53.19;100603.89;1826617;78;20956;-88
2021/09/18 06:32:07;;;;;;;13.80;3.42;;;;;;;28.30;50.76;100600.43;1805872;78;21120;-88
2021/09/18 06:34:34;;;;;;;10.70;3.72;;;;;;;29.30;49.69;100598.32;1826141;77;21038;-88
2021/09/18 06:37:00;;;;;;;9.38;4.12;;;;;;;29.87;46.02;100604.17;1826618;78;21050;-87
2021/09/18 06:39:26;;;;;;;13.98;3.75;;;;;;;30.45;44.83;100599.58;1826599;78;21015;-87
2021/09/18 06:41:55;;;;;;;8.18;3.80;;;;;;;31.45;41.56;100590.58;1826471;78;21022;-87
2021/09/18 06:44:20;;;;;;;10.65;3.50;;;;;;;31.50;41.44;100589.35;1806112;78;21128;-88
2021/09/18 06:46:46;;;;;;;18.35;3.98;;;;;;;31.39;38.87;100599.16;1826471;78;20946;-88
2021/09/18 06:49:12;;;;;;;10.00;4.60;;;;;;;30.99;39.88;100589.25;1826807;78;21096;-87
2021/09/18 06:51:38;;;;;;;11.40;3.85;;;;;;;30.87;39.36;100598.81;1826688;78;20857;-87
2021/09/18 06:54:04;;;;;;;9.98;3.35;;;;;;;30.60;39.62;100587.27;1826720;78;20955;-89
2021/09/18 06:56:29;;;;;;;13.05;3.25;;;;;;;30.35;38.66;100587.23;1826774;78;21294;-88
2021/09/18 06:58:56;;;;;;;15.32;3.75;;;;;;;30.26;39.51;100591.78;1826341;78;20864;-88
2021/09/18 07:01:23;;;;;;;14.65;3.58;;;;;;;30.34;39.74;100587.04;1826291;78;21003;-88
2021/09/18 07:03:50;;;;;;;12.13;4.12;;;;;;;30.17;37.99;100585.78;1826251;78;21026;-87
2021/09/18 07:06:16;;;;;;;13.35;3.60;;;;;;;29.60;38.77;100578.63;1826725;78;20949;-87
2021/09/18 07:08:42;;;;;;;17.42;4.10;;;;;;;29.42;39.34;100574.39;1826496;77;21956;-87
2021/09/18 07:11:08;;;;;;;12.28;3.90;;;;;;;29.11;40.32;100580.73;1805863;78;20972;-87
2021/09/18 07:13:34;;;;;;;14.83;3.85;;;;;;;29.19;41.44;100574.66;1826450;78;20948;-86
2021/09/18 07:15:59;;;;;;;17.87;4.20;;;;;;;29.50;41.93;100578.77;1826429;78;21648;-88
2021/09/18 07:18:25;;;;;;;10.53;3.22;;;;;;;30.15;41.25;100568.72;1826800;78;20899;-88
2021/09/18 07:20:52;;;;;;;9.20;4.12;;;;;;;30.92;38.76;100567.80;1826217;77;21066;-88
2021/09/18 07:23:19;;;;;;;11.57;3.80;;;;;;;31.99;35.20;100561.09;1826678;78;21020;-88
2021/09/18 07:25:45;;;;;;;9.63;3.72;;;;;;;32.67;34.09;100564.02;1826336;78;20992;-90
2021/09/18 07:28:12;;;;;;;18.90;3.83;;;;;;;33.45;32.02;100561.83;1826384;78;21542;-87
2021/09/18 07:30:38;;;;;;;11.65;4.12;;;;;;;33.67;31.33;100566.56;1826670;78;21491;-89
2021/09/18 07:33:04;;;;;;;17.62;3.50;;;;;;;33.95;30.82;100559.63;1826490;78;21104;-87
2021/09/18 07:35:30;;;;;;;12.30;3.60;;;;;;;34.36;30.01;100571.41;1826318;77;20856;-88
2021/09/18 07:37:58;;;;;;;13.15;4.50;;;;;;;35.41;30.41;100552.14;1826492;78;20916;-89
2021/09/18 07:40:24;;;;;;;20.60;4.95;;;;;;;36.74;29.20;100539.49;1826307;78;20972;-88
2021/09/18 07:42:50;;;;;;;15.08;4.72;;;;;;;36.62;27.29;100557.05;1826137;78;21026;-87
2021/09/18 07:45:16;;;;;;;20.50;3.83;;;;;;;36.33;27.78;100543.72;1826633;78;21180;-88
2021/09/18 07:47:42;;;;;;;18.67;3.55;;;;;;;36.23;25.99;100551.77;1826571;78;20955;-87
2021/09/18 07:50:09;;;;;;;16.52;3.72;;;;;;;36.57;25.77;100540.12;1826307;78;20933;-85
2021/09/18 07:52:35;;;;;;;11.38;3.08;;;;;;;36.57;26.76;100542.94;1819265;77;21018;-87
2021/09/18 07:55:00;;;;;;;12.75;3.08;;;;;;;36.78;25.60;100516.30;1795523;77;20987;-86
2021/09/18 07:57:26;;;;;;;9.63;2.95;;;;;;;36.19;25.56;100542.66;1826336;78;21180;-86
2021/09/18 07:59:54;;;;;;;13.78;3.00;;;;;;;35.52;26.24;100539.31;1818915;77;21037;-86
2021/09/18 08:02:21;;;;;;;13.78;3.45;;;;;;;35.04;27.03;100540.05;1839758;77;21045;-85
2021/09/18 08:04:47;;;;;;;10.72;3.25;;;;;;;34.53;26.71;100540.14;1859758;77;21022;-86
2021/09/18 08:07:15;;;;;;;9.60;3.35;;;;;;;33.76;27.40;100541.50;1860469;77;20991;-86
2021/09/18 08:09:41;;;;;;;11.05;3.35;;;;;;;33.25;28.26;100551.88;1860076;77;20999;-85
2021/09/18 08:12:08;;;;;;;9.78;3.05;;;;;;;32.74;28.50;100545.82;1860347;77;21014;-86
2021/09/18 08:14:34;;;;;;;18.80;6.83;;;;;;;32.27;29.37;100539.20;1860618;77;21054;-85
2021/09/18 08:17:00;;;;;;;24.27;8.98;;;;;;;31.66;29.94;100538.14;1860341;77;20927;-85
2021/09/18 08:19:25;;;;;;;23.30;7.85;;;;;;;30.92;30.96;100541.96;1855957;77;20951;-85
2021/09/18 08:21:52;;;;;;;27.85;5.33;;;;;;;30.35;31.72;100538.56;1863693;77;20994;-84
2021/09/18 08:24:19;;;;;;;10.70;3.42;;;;;;;30.07;32.50;100544.27;1863291;76;20967;-87
2021/09/18 08:26:45;;;;;;;23.32;4.17;;;;;;;29.78;32.79;100537.06;1863666;77;21045;-88
2021/09/18 08:29:11;;;;;;;8.80;3.12;;;;;;;29.49;32.94;100548.63;1863843;77;21027;-89
2021/09/18 08:31:37;;;;;;;7.12;2.80;;;;;;;29.24;33.21;100536.81;1863853;76;20902;-88
2021/09/18 08:34:03;;;;;;;10.78;3.55;;;;;;;29.18;33.96;100534.20;1863774;77;21197;-87
2021/09/18 08:36:29;;;;;;;6.53;2.87;;;;;;;28.94;34.53;100539.19;1825701;78;21019;-89
2021/09/18 08:38:55;;;;;;;14.50;3.25;;;;;;;28.82;34.88;100533.14;1825760;78;21476;-87
2021/09/18 08:41:22;;;;;;;10.90;3.08;;;;;;;28.50;34.83;100537.28;1825741;78;21565;-88
2021/09/18 08:43:48;;;;;;;17.12;3.35;;;;;;;27.92;35.62;100537.09;1825698;78;21447;-88
2021/09/18 08:46:17;;;;;;;17.37;3.58;;;;;;;27.43;36.36;100540.83;1825605;78;21166;-89
2021/09/18 08:48:45;;;;;;;17.07;4.50;;;;;;;27.17;37.17;100529.41;1825751;78;20980;-89
2021/09/18 08:51:12;;;;;;;24.72;8.48;;;;;;;27.14;37.11;100530.12;1825777;78;21605;-89
2021/09/18 08:53:38;;;;;;;27.62;9.13;;;;;;;27.05;37.35;100529.61;1825437;78;21074;-88
2021/09/18 08:56:05;;;;;;;15.30;4.37;;;;;;;27.02;37.97;100528.97;1825762;78;20992;-89
2021/09/18 08:58:31;;;;;;;10.23;3.27;;;;;;;26.92;38.01;100531.02;1818139;78;21063;-88
2021/09/18 09:00:58;;;;;;;13.95;3.45;;;;;;;26.66;39.22;100531.80;1806439;77;20856;-89
2021/09/18 09:03:35;;;;;;;15.38;3.90;;;;;;;26.46;41.63;100536.56;1842953;77;21010;-88
2021/09/18 09:06:16;;;;;;;16.97;3.50;;;;;;;26.19;43.91;100525.45;1794560;80;21545;-88
2021/09/18 09:08:57;;;;;;;9.48;3.77;;;;;;;25.91;46.20;100524.33;1794847;80;21002;-88
2021/09/18 09:11:30;;;;;;;20.45;5.05;;;;;;;25.68;46.26;100517.38;1794082;80;21079;-88
2021/09/18 09:14:03;;;;;;;13.90;3.50;;;;;;;25.45;47.53;100524.78;1794965;80;21553;-88
2021/09/18 09:16:33;;;;;;;15.25;3.65;;;;;;;25.47;48.83;100518.30;1779839;80;21034;-88
2021/09/18 09:19:20;;;;;;;27.13;7.92;;;;;;;25.44;48.59;100509.38;1763068;81;21125;-88
2021/09/18 09:21:57;;;;;;;25.90;7.95;;;;;;;25.34;47.42;100513.52;1733048;82;21070;-88
2021/09/18 09:24:27;;;;;;;19.00;5.97;;;;;;;25.35;47.33;100511.79;1732640;82;21070;-89
2021/09/18 09:27:18;;;;;;;28.38;7.67;;;;;;;25.43;48.23;100521.58;1732526;82;21074;-89
2021/09/18 09:29:57;;;;;;;47.55;15.48;;;;;;;25.46;50.21;100520.27;1732829;82;21522;-88
2021/09/18 09:32:34;;;;;;;98.45;32.00;;;;;;;25.27;49.31;100518.30;1732675;82;21109;-88
2021/09/18 09:35:14;;;;;;;57.40;21.00;;;;;;;25.06;51.13;100524.68;1732303;82;21042;-88
2021/09/18 09:37:57;;;;;;;62.73;22.35;;;;;;;24.87;52.39;100525.45;1731657;82;21531;-89
2021/09/18 09:40:46;;;;;;;27.45;10.40;;;;;;;24.69;57.03;100527.78;1732214;82;21050;-90
2021/09/18 09:43:18;;;;;;;26.68;9.28;;;;;;;24.50;57.23;100529.07;1732438;82;21022;-88
2021/09/18 09:45:46;;;;;;;57.65;19.82;;;;;;;24.41;59.34;100526.46;1733016;82;21133;-89
2021/09/18 09:48:16;;;;;;;58.87;20.55;;;;;;;24.39;61.52;100522.70;1733090;82;21542;-91
2021/09/18 09:50:45;;;;;;;49.48;15.98;;;;;;;24.40;66.64;100526.25;1728929;82;21091;-91
2021/09/18 09:53:30;;;;;;;37.00;11.48;;;;;;;24.35;67.02;100520.41;1733013;82;21077;-87
2021/09/18 09:55:57;;;;;;;21.27;7.12;;;;;;;24.28;67.71;100527.13;1732711;82;21044;-87
2021/09/18 09:58:24;;;;;;;22.05;5.25;;;;;;;24.23;67.52;100519.92;1738729;80;21050;-84
2021/09/18 10:00:52;;;;;;;11.83;3.15;;;;;;;24.15;61.86;100521.47;1770547;80;21616;-85
2021/09/18 10:03:21;;;;;;;13.25;3.22;;;;;;;23.98;58.74;100509.64;1787363;77;21981;-88
2021/09/18 10:05:49;;;;;;;12.78;2.65;;;;;;;23.95;59.40;100514.48;1790734;79;21045;-86
2021/09/18 10:08:23;;;;;;;7.03;2.80;;;;;;;23.95;58.94;100511.73;1790763;80;21041;-86
2021/09/18 10:10:51;;;;;;;10.72;3.00;;;;;;;23.89;58.25;100517.27;1787841;80;21013;-86
2021/09/18 10:13:24;;;;;;;7.85;2.62;;;;;;;23.86;59.29;100516.59;1790771;80;21033;-86
2021/09/18 10:15:51;;;;;;;;;;;;;;;23.85;59.13;100510.84;1789548;80;21066;-87
2021/09/18 10:18:17;;;;;;;10.48;2.70;;;;;;;23.84;62.97;100507.87;1790622;79;20154;-86
2021/09/18 10:23:23;;;;;;;8.93;3.10;;;;;;;23.79;62.00;100510.30;1801247;79;21458;-86
2021/09/18 10:25:53;;;;;;;10.58;3.25;;;;;;;23.70;59.88;100507.48;1801989;79;20990;-87
2021/09/18 10:28:41;;;;;;;11.53;3.47;;;;;;;23.58;57.33;100500.84;1802125;79;21346;-85
2021/09/18 10:31:15;;;;;;;11.88;4.00;;;;;;;23.50;55.85;100497.69;1748867;82;21002;-86
2021/09/18 10:33:46;;;;;;;24.25;5.72;;;;;;;23.53;55.51;100498.37;1693180;84;21531;-85
2021/09/18 10:36:18;;;;;;;13.32;4.78;;;;;;;23.49;54.63;100499.40;1640215;87;21518;-86
2021/09/18 10:38:51;;;;;;;12.65;3.42;;;;;;;23.52;54.41;100496.75;1640466;87;21526;-86
2021/09/18 10:41:21;;;;;;;21.17;4.60;;;;;;;23.52;54.35;100496.75;1640556;87;21261;-84
2021/09/18 10:44:00;;;;;;;16.00;4.58;;;;;;;23.50;53.98;100492.19;1640062;87;21471;-84
2021/09/18 10:46:49;;;;;;;8.63;3.00;;;;;;;23.45;53.40;100495.76;1636346;87;21046;-86
2021/09/18 10:49:35;;;;;;;16.15;3.35;;;;;;;23.37;52.73;100486.48;1622028;88;21058;-89
2021/09/18 10:52:31;;;;;;;15.72;3.12;;;;;;;23.37;52.26;100480.20;1622327;88;21058;-86
2021/09/18 10:55:10;;;;;;;10.43;4.30;;;;;;;23.42;52.43;100484.87;1622118;87;21146;-86
2021/09/18 10:57:42;;;;;;;13.40;4.53;;;;;;;23.49;52.28;100482.89;1621797;88;21028;-85
2021/09/18 11:00:23;;;;;;;14.13;4.20;;;;;;;23.54;54.41;100484.83;1622120;88;21006;-86
2021/09/18 11:02:57;;;;;;;16.17;4.50;;;;;;;23.61;52.49;100486.17;1622184;88;21091;-85
2021/09/18 11:05:37;;;;;;;9.85;3.83;;;;;;;23.69;52.18;100479.72;1622392;88;21086;-86
2021/09/18 11:08:17;;;;;;;16.60;3.83;;;;;;;23.77;51.24;100480.97;1622229;88;21182;-88
2021/09/18 11:10:59;;;;;;;16.52;3.92;;;;;;;23.94;52.09;100468.84;1640647;85;21042;-87
2021/09/18 11:13:32;;;;;;;16.93;4.43;;;;;;;24.05;52.26;100475.98;1675767;85;21085;-87
2021/09/18 11:16:04;;;;;;;11.12;3.75;;;;;;;24.16;52.44;100470.77;1673218;85;21003;-86